Cliff Island, Maine
Current Conditions -  °F | °C
As of 6:51 AM on Saturday 20 Dec 2014 (Local Time) from KPWM Reporting Station
Clear Clear  
Wind Chill: 14°   Ceiling: Unl
Heat Index: 25°   Visibility: 10mi
Dew Point: 16°   Wind: 12mph
Humidity: 69%   Direction: 30°NNE
Pressure: 30.27"   Gusts: NA
Location:  43.7°N, 70.11°W
Report Text: KPWM 201151Z 03010KT 10SM CLR M04/M09 A3027 RMK AO2 SLP250 T10391089 11022 21050 52020
Loading
Personal Weather Stations






























Interactive Weather Map New forecast layout! Learn more

10-Day Weather Forecast

Advertisements
Track Severe Weather on mobile